Time;durP1;ratioP1;P1;durP2;ratioP2;P2;SDS_P1;SDS_P2;PMS_P1;PMS_P2;Temp;Humidity;BMP_temperature;BMP_pressure;BME280_temperature;BME280_humidity;BME280_pressure;Samples;Min_cycle;Max_cycle;Signal;HPM_P1;HPM_P2
2021/07/08 00:00:15;;;;;;;10.68;5.25;;;16.10;75.70;;;;;;5037303;28;20024;-73
2021/07/08 00:02:42;;;;;;;11.93;5.35;;;16.10;76.40;;;;;;5036904;28;20404;-73
2021/07/08 00:05:12;;;;;;;9.35;5.82;;;16.10;76.00;;;;;;5036681;28;20463;-73
2021/07/08 00:07:38;;;;;;;11.13;5.05;;;16.00;75.70;;;;;;5028534;28;20083;-72
2021/07/08 00:10:17;;;;;;;15.57;6.50;;;16.00;76.20;;;;;;5036294;28;20033;-73
2021/07/08 00:12:42;;;;;;;10.27;5.00;;;16.00;75.90;;;;;;5028367;28;20029;-72
2021/07/08 00:15:14;;;;;;;13.60;5.68;;;16.00;75.80;;;;;;5037226;28;20059;-72
2021/07/08 00:17:43;;;;;;;9.52;5.13;;;15.90;75.40;;;;;;5045608;28;20042;-72
2021/07/08 00:20:12;;;;;;;12.00;4.95;;;16.00;74.60;;;;;;5034335;28;20046;-72
2021/07/08 00:22:37;;;;;;;10.38;4.82;;;15.90;75.00;;;;;;5035665;28;20030;-73
2021/07/08 00:25:11;;;;;;;15.15;5.75;;;15.90;75.00;;;;;;5033701;28;20025;-72
2021/07/08 00:27:37;;;;;;;11.02;4.95;;;15.90;74.90;;;;;;5036515;28;20385;-73
2021/07/08 00:30:08;;;;;;;11.27;5.45;;;15.90;75.00;;;;;;5034434;28;20029;-72
2021/07/08 00:32:34;;;;;;;10.60;4.90;;;15.90;74.30;;;;;;5034794;28;20033;-72
2021/07/08 00:35:00;;;;;;;10.82;4.50;;;15.90;74.40;;;;;;5024524;28;20036;-73
2021/07/08 00:37:26;;;;;;;10.27;4.90;;;15.90;73.70;;;;;;5033217;28;20480;-73
2021/07/08 00:39:52;;;;;;;11.80;5.00;;;15.90;73.50;;;;;;5036509;28;20032;-73
2021/07/08 00:42:18;;;;;;;11.32;5.40;;;15.90;73.80;;;;;;5035830;28;20025;-73
2021/07/08 00:44:46;;;;;;;11.55;5.05;;;15.90;73.90;;;;;;5037161;28;20022;-73
2021/07/08 00:47:12;;;;;;;10.23;5.13;;;15.90;74.30;;;;;;5038786;28;20396;-72
2021/07/08 00:49:38;;;;;;;15.13;6.38;;;15.90;75.50;;;;;;5039677;28;20021;-73
2021/07/08 00:52:04;;;;;;;14.10;5.68;;;15.90;75.40;;;;;;5040743;28;20107;-73
2021/07/08 00:54:30;;;;;;;11.55;5.38;;;15.90;75.20;;;;;;5040680;28;20025;-73
2021/07/08 00:56:56;;;;;;;11.40;5.50;;;15.90;74.50;;;;;;5039651;28;20106;-73
2021/07/08 00:59:22;;;;;;;10.27;5.25;;;15.90;74.30;;;;;;5044451;28;20030;-73
2021/07/08 01:01:49;;;;;;;11.20;5.28;;;15.90;74.50;;;;;;5038949;28;20104;-73
2021/07/08 01:04:15;;;;;;;14.63;5.57;;;15.90;74.90;;;;;;5036746;28;20464;-73
2021/07/08 01:06:45;;;;;;;11.27;6.13;;;15.90;75.20;;;;;;5039463;28;20021;-73
2021/07/08 01:09:14;;;;;;;11.32;5.65;;;15.90;74.50;;;;;;5039057;28;20118;-73
2021/07/08 01:11:41;;;;;;;10.85;5.10;;;15.90;75.40;;;;;;5039363;28;20032;-72
2021/07/08 01:14:08;;;;;;;8.35;4.80;;;15.90;74.60;;;;;;5039714;28;20044;-73
2021/07/08 01:16:35;;;;;;;11.05;5.10;;;15.80;74.60;;;;;;5028541;28;20030;-73
2021/07/08 01:19:02;;;;;;;9.80;4.25;;;15.80;74.60;;;;;;5036394;28;20057;-72
2021/07/08 01:21:34;;;;;;;9.40;4.80;;;15.80;74.00;;;;;;5039297;28;20499;-72
2021/07/08 01:24:02;;;;;;;10.18;5.00;;;15.80;73.40;;;;;;5040626;28;20017;-73
2021/07/08 01:26:28;;;;;;;12.55;5.68;;;15.80;73.30;;;;;;5038787;28;20068;-73
2021/07/08 01:28:55;;;;;;;11.80;5.00;;;15.80;73.10;;;;;;5039722;28;20025;-72
2021/07/08 01:31:24;;;;;;;9.30;4.47;;;15.70;72.80;;;;;;5039666;28;20062;-73
2021/07/08 01:33:50;;;;;;;10.02;4.65;;;15.80;72.70;;;;;;5037770;28;20029;-73
2021/07/08 01:36:16;;;;;;;9.73;4.55;;;15.80;72.30;;;;;;5039331;28;20087;-72
2021/07/08 01:38:43;;;;;;;7.90;4.50;;;15.80;72.00;;;;;;5039191;28;20085;-73
2021/07/08 01:41:09;;;;;;;9.30;4.38;;;15.80;72.00;;;;;;5039197;28;20018;-72
2021/07/08 01:43:38;;;;;;;9.30;4.10;;;15.80;71.50;;;;;;5038769;28;20025;-72
2021/07/08 01:46:09;;;;;;;8.50;4.47;;;15.70;71.20;;;;;;5039204;28;20022;-73
2021/07/08 01:48:35;;;;;;;8.57;4.22;;;15.70;70.90;;;;;;5040064;28;20056;-73
2021/07/08 01:51:04;;;;;;;8.55;4.85;;;15.70;70.90;;;;;;5039245;28;20021;-72
2021/07/08 01:53:31;;;;;;;6.50;3.83;;;15.70;70.70;;;;;;5038582;28;20476;-72
2021/07/08 01:55:57;;;;;;;7.72;4.05;;;15.70;70.50;;;;;;5038989;28;20017;-72
2021/07/08 01:58:26;;;;;;;8.50;4.13;;;15.60;70.30;;;;;;5039093;28;20021;-72
2021/07/08 02:00:52;;;;;;;8.45;3.95;;;15.60;70.30;;;;;;5051220;28;20022;-72
2021/07/08 02:03:18;;;;;;;7.25;4.53;;;15.60;70.30;;;;;;5037302;28;20053;-73
2021/07/08 02:05:45;;;;;;;8.52;4.70;;;15.60;70.50;;;;;;5038795;28;20021;-73
2021/07/08 02:08:11;;;;;;;9.18;4.22;;;15.70;70.60;;;;;;5037733;28;20034;-73
2021/07/08 02:10:38;;;;;;;10.55;4.63;;;15.60;70.50;;;;;;5038132;28;20032;-73
2021/07/08 02:13:05;;;;;;;9.15;4.43;;;15.70;70.70;;;;;;5036936;28;20037;-73
2021/07/08 02:15:31;;;;;;;9.98;4.75;;;15.70;70.70;;;;;;5039145;28;20511;-73
2021/07/08 02:17:57;;;;;;;14.48;5.38;;;15.70;70.80;;;;;;5034995;28;20026;-73
2021/07/08 02:20:22;;;;;;;9.43;4.72;;;15.70;70.90;;;;;;5038667;28;20404;-73
2021/07/08 02:22:48;;;;;;;8.98;4.32;;;15.70;70.90;;;;;;5038470;28;20093;-73
2021/07/08 02:25:15;;;;;;;9.82;4.35;;;15.70;70.90;;;;;;5038572;28;20029;-73
2021/07/08 02:27:41;;;;;;;9.50;5.40;;;15.80;70.80;;;;;;5038349;28;20033;-73
2021/07/08 02:30:10;;;;;;;10.98;5.70;;;15.70;70.80;;;;;;5038893;28;20021;-73
2021/07/08 02:32:37;;;;;;;9.23;5.00;;;15.80;70.90;;;;;;5034565;28;20396;-73
2021/07/08 02:35:05;;;;;;;10.57;4.93;;;15.80;71.70;;;;;;5034481;28;20025;-73
2021/07/08 02:37:32;;;;;;;13.38;5.38;;;15.80;71.80;;;;;;5037081;28;20029;-73
2021/07/08 02:39:58;;;;;;;12.32;5.22;;;15.80;72.20;;;;;;5038068;28;20025;-73
2021/07/08 02:42:24;;;;;;;13.45;6.15;;;15.80;72.30;;;;;;5037181;28;20037;-73
2021/07/08 02:44:50;;;;;;;14.68;7.30;;;15.90;74.10;;;;;;5030515;28;20030;-73
2021/07/08 02:47:15;;;;;;;14.27;7.07;;;15.90;74.60;;;;;;5038289;28;20564;-73
2021/07/08 02:49:41;;;;;;;16.80;7.15;;;15.90;74.70;;;;;;5038780;28;20362;-73
2021/07/08 02:52:07;;;;;;;12.80;6.28;;;15.90;73.70;;;;;;5032808;28;20036;-73
2021/07/08 02:54:33;;;;;;;9.93;6.30;;;15.90;73.00;;;;;;5030074;28;20109;-73
2021/07/08 02:56:59;;;;;;;13.60;6.38;;;15.90;72.50;;;;;;5024742;28;20390;-73
2021/07/08 02:59:25;;;;;;;12.90;6.80;;;15.80;72.00;;;;;;5037354;28;20033;-73
2021/07/08 03:01:51;;;;;;;10.60;5.60;;;15.80;71.80;;;;;;5037945;28;20032;-72
2021/07/08 03:04:17;;;;;;;10.85;6.15;;;15.80;71.60;;;;;;5038312;28;20053;-72
2021/07/08 03:06:43;;;;;;;11.95;6.07;;;15.80;71.40;;;;;;5036599;28;20032;-73
2021/07/08 03:09:09;;;;;;;10.85;5.50;;;15.80;71.40;;;;;;5035777;28;20057;-73
2021/07/08 03:11:35;;;;;;;13.63;6.53;;;15.70;71.20;;;;;;5037298;28;20034;-72
2021/07/08 03:14:01;;;;;;;12.20;6.00;;;15.70;71.70;;;;;;5036336;28;20029;-73
2021/07/08 03:16:26;;;;;;;10.40;6.43;;;15.70;71.30;;;;;;5036700;28;20041;-73
2021/07/08 03:18:52;;;;;;;13.75;6.57;;;15.70;72.00;;;;;;5035902;28;20456;-72
2021/07/08 03:21:18;;;;;;;13.68;6.15;;;15.70;72.30;;;;;;5037774;28;20071;-72
2021/07/08 03:23:44;;;;;;;11.40;6.07;;;15.70;71.60;;;;;;5036148;28;20032;-72
2021/07/08 03:26:10;;;;;;;13.48;6.15;;;15.60;72.00;;;;;;5037833;28;20021;-73
2021/07/08 03:28:36;;;;;;;11.55;6.05;;;15.60;71.20;;;;;;5036951;28;20028;-73
2021/07/08 03:31:02;;;;;;;11.93;5.97;;;15.60;71.00;;;;;;5037613;28;20033;-73
2021/07/08 03:33:28;;;;;;;9.70;5.72;;;15.60;70.90;;;;;;5030824;28;20030;-72
2021/07/08 03:35:53;;;;;;;9.95;6.15;;;15.60;70.70;;;;;;5031671;28;20033;-73
2021/07/08 03:38:19;;;;;;;11.93;5.82;;;15.50;70.30;;;;;;5025798;28;20021;-72
2021/07/08 03:40:45;;;;;;;9.93;5.72;;;15.50;70.20;;;;;;5037572;28;20021;-73
2021/07/08 03:43:11;;;;;;;9.82;5.63;;;15.50;70.00;;;;;;5037732;28;20392;-72
2021/07/08 03:45:37;;;;;;;10.75;5.82;;;15.50;69.90;;;;;;5037463;28;20026;-72
2021/07/08 03:48:04;;;;;;;8.63;5.03;;;15.40;69.70;;;;;;5036710;28;20029;-72
2021/07/08 03:50:30;;;;;;;11.02;5.93;;;15.40;69.60;;;;;;5037670;28;20022;-73
2021/07/08 03:52:58;;;;;;;11.35;5.57;;;15.40;70.50;;;;;;5037615;28;20132;-72
2021/07/08 03:55:24;;;;;;;9.60;5.25;;;15.30;69.40;;;;;;5037413;28;20495;-73
2021/07/08 03:57:54;;;;;;;10.63;5.40;;;15.30;69.40;;;;;;5032679;28;20489;-72
2021/07/08 04:00:37;;;;;;;9.57;5.28;;;15.30;69.30;;;;;;5036873;28;20029;-72
2021/07/08 04:03:08;;;;;;;13.07;6.00;;;15.30;69.20;;;;;;5026259;28;20448;-72
2021/07/08 04:05:35;;;;;;;11.95;5.53;;;15.20;69.10;;;;;;5037132;28;20492;-73
2021/07/08 04:08:01;;;;;;;9.18;5.15;;;15.20;69.40;;;;;;5036348;28;20022;-72
2021/07/08 04:10:28;;;;;;;10.90;5.45;;;15.20;69.40;;;;;;5037172;28;20117;-73
2021/07/08 04:12:53;;;;;;;12.75;6.97;;;15.20;69.40;;;;;;5037311;28;20373;-73
2021/07/08 04:15:20;;;;;;;8.43;5.45;;;15.20;69.60;;;;;;5037321;28;20110;-72
2021/07/08 04:17:46;;;;;;;9.63;5.28;;;15.20;69.60;;;;;;5033185;28;20109;-73
2021/07/08 04:20:15;;;;;;;8.50;5.28;;;15.20;69.80;;;;;;5036552;28;20077;-73
2021/07/08 04:22:41;;;;;;;10.82;5.50;;;15.20;69.80;;;;;;5043143;28;20073;-73
2021/07/08 04:25:09;;;;;;;12.30;5.80;;;15.30;70.00;;;;;;5043708;28;20025;-73
2021/07/08 04:27:36;;;;;;;11.98;5.53;;;15.30;70.10;;;;;;5030110;28;20030;-73
2021/07/08 04:30:04;;;;;;;15.13;6.60;;;15.30;70.20;;;;;;5042988;28;20057;-73
2021/07/08 04:32:30;;;;;;;14.93;5.97;;;15.30;70.20;;;;;;5043373;28;20108;-73
2021/07/08 04:34:56;;;;;;;10.25;6.00;;;15.40;70.40;;;;;;5037552;28;20092;-73
2021/07/08 04:37:22;;;;;;;9.82;5.50;;;15.40;70.50;;;;;;5038628;28;20538;-73
2021/07/08 04:39:48;;;;;;;14.50;6.38;;;15.40;70.70;;;;;;5042800;28;20025;-73
2021/07/08 04:42:14;;;;;;;13.55;5.47;;;15.40;70.90;;;;;;5038041;28;20046;-73
2021/07/08 04:44:40;;;;;;;10.98;5.72;;;15.40;71.10;;;;;;5035757;28;20026;-72
2021/07/08 04:47:06;;;;;;;13.27;6.13;;;15.40;71.20;;;;;;5043560;28;20036;-73
2021/07/08 04:49:34;;;;;;;12.25;6.00;;;15.50;71.20;;;;;;5041899;28;20029;-73
2021/07/08 04:52:01;;;;;;;15.25;7.00;;;15.50;71.20;;;;;;5042969;28;20052;-73
2021/07/08 04:54:26;;;;;;;12.50;6.25;;;15.50;71.40;;;;;;5042710;28;20071;-73
2021/07/08 04:56:52;;;;;;;12.07;6.07;;;15.50;71.60;;;;;;5042201;28;20033;-73
2021/07/08 04:59:18;;;;;;;12.20;6.30;;;15.50;71.50;;;;;;5041633;28;20026;-72
2021/07/08 05:01:44;;;;;;;11.02;5.97;;;15.50;71.70;;;;;;5041789;28;20048;-73
2021/07/08 05:04:09;;;;;;;12.32;6.10;;;15.60;71.60;;;;;;5043436;28;20057;-72
2021/07/08 05:06:35;;;;;;;12.25;6.38;;;15.60;71.60;;;;;;5043544;28;20021;-72
2021/07/08 05:09:01;;;;;;;11.27;5.95;;;15.60;71.80;;;;;;5042274;28;20021;-76
2021/07/08 05:11:27;;;;;;;10.85;6.20;;;15.60;72.00;;;;;;5043435;28;20032;-73
2021/07/08 05:13:54;;;;;;;11.30;6.25;;;15.60;72.30;;;;;;5042101;28;20029;-76
2021/07/08 05:16:20;;;;;;;12.90;6.07;;;15.70;72.50;;;;;;5043376;28;20104;-78
2021/07/08 05:18:45;;;;;;;11.60;6.35;;;15.70;72.40;;;;;;5038207;28;20080;-76
2021/07/08 05:21:13;;;;;;;14.20;6.90;;;15.60;72.30;;;;;;5041875;28;20060;-75
2021/07/08 05:23:39;;;;;;;14.60;6.95;;;15.70;72.60;;;;;;5042525;28;20021;-75
2021/07/08 05:26:05;;;;;;;15.10;7.50;;;15.60;72.80;;;;;;5040646;28;20053;-82
2021/07/08 05:28:32;;;;;;;12.07;6.22;;;15.70;72.90;;;;;;5042523;28;20017;-75
2021/07/08 05:30:58;;;;;;;11.90;6.88;;;15.70;73.30;;;;;;5040559;28;20030;-74
2021/07/08 05:33:23;;;;;;;13.38;6.40;;;15.70;73.30;;;;;;5032790;28;20037;-73
2021/07/08 05:35:49;;;;;;;14.48;7.22;;;15.70;73.20;;;;;;5035890;28;20025;-74
2021/07/08 05:38:15;;;;;;;18.25;7.93;;;15.70;73.20;;;;;;5036759;28;20026;-72
2021/07/08 05:40:41;;;;;;;13.45;6.97;;;15.70;73.20;;;;;;5035212;28;20034;-73
2021/07/08 05:43:07;;;;;;;13.65;7.00;;;15.70;73.40;;;;;;5024205;28;20496;-73
2021/07/08 05:45:33;;;;;;;14.10;7.63;;;15.70;73.60;;;;;;5034559;28;20568;-75
2021/07/08 05:48:00;;;;;;;16.40;8.13;;;15.70;73.70;;;;;;5039862;28;20023;-77
2021/07/08 05:50:25;;;;;;;13.77;6.60;;;15.70;73.60;;;;;;5037000;28;20029;-73
2021/07/08 05:52:51;;;;;;;14.02;7.43;;;15.70;73.60;;;;;;5039447;28;20026;-72
2021/07/08 05:55:17;;;;;;;14.07;7.63;;;15.70;73.60;;;;;;5039127;28;20032;-71
2021/07/08 05:57:49;;;;;;;15.00;7.60;;;15.80;73.90;;;;;;5039095;28;20029;-73
2021/07/08 06:00:18;;;;;;;12.93;7.35;;;15.80;73.60;;;;;;5037382;28;20029;-73
2021/07/08 06:02:44;;;;;;;12.07;7.47;;;15.80;73.70;;;;;;5039425;28;20053;-72
2021/07/08 06:05:10;;;;;;;32.78;19.73;;;15.80;73.70;;;;;;5038174;28;20017;-71
2021/07/08 06:07:36;;;;;;;41.08;25.55;;;15.80;73.70;;;;;;5034661;28;20052;-71
2021/07/08 06:10:04;;;;;;;31.80;18.38;;;15.90;73.70;;;;;;5037727;28;20439;-71
2021/07/08 06:12:30;;;;;;;22.65;12.10;;;15.90;73.90;;;;;;5039575;28;20536;-71
2021/07/08 06:14:56;;;;;;;21.08;11.23;;;15.90;74.00;;;;;;5036559;28;20072;-71
2021/07/08 06:17:22;;;;;;;17.23;9.77;;;15.90;73.90;;;;;;5029491;28;22331;-71
2021/07/08 06:19:47;;;;;;;17.83;9.80;;;16.00;74.30;;;;;;5037322;28;20049;-71
2021/07/08 06:22:13;;;;;;;18.85;9.38;;;16.10;74.50;;;;;;5033301;28;20033;-72
2021/07/08 06:24:39;;;;;;;19.27;8.70;;;16.10;74.90;;;;;;5031300;28;20021;-71
2021/07/08 06:27:05;;;;;;;15.57;8.57;;;16.10;75.00;;;;;;5039195;28;20025;-71
2021/07/08 06:29:31;;;;;;;19.00;8.95;;;16.20;75.10;;;;;;5032786;28;20038;-71
2021/07/08 06:31:57;;;;;;;14.50;8.20;;;16.20;75.50;;;;;;5032293;28;20113;-71
2021/07/08 06:34:22;;;;;;;17.42;8.68;;;16.30;75.50;;;;;;5034879;28;20034;-71
2021/07/08 06:36:48;;;;;;;16.33;7.97;;;16.40;75.30;;;;;;5032598;28;20085;-71
2021/07/08 06:39:14;;;;;;;16.52;8.43;;;16.40;75.50;;;;;;5038548;28;20044;-71
2021/07/08 06:41:40;;;;;;;15.05;7.50;;;16.50;75.40;;;;;;5037928;28;20025;-71
2021/07/08 06:44:06;;;;;;;15.60;7.45;;;16.50;75.40;;;;;;5031293;28;20065;-71
2021/07/08 06:46:32;;;;;;;13.75;7.75;;;16.60;75.50;;;;;;5037869;28;20392;-71
2021/07/08 06:48:58;;;;;;;16.17;8.00;;;16.60;75.60;;;;;;5037954;28;20439;-71
2021/07/08 06:51:25;;;;;;;12.30;7.30;;;16.70;75.80;;;;;;5036173;28;20029;-71
2021/07/08 06:53:51;;;;;;;16.88;8.43;;;16.70;75.70;;;;;;5037377;28;20021;-74
2021/07/08 06:56:20;;;;;;;13.93;8.27;;;16.80;75.80;;;;;;5037792;28;20462;-71
2021/07/08 06:58:46;;;;;;;13.88;7.25;;;16.80;75.80;;;;;;5030900;28;20017;-71
2021/07/08 07:01:11;;;;;;;15.32;7.88;;;16.80;75.90;;;;;;5027851;28;20484;-71
2021/07/08 07:03:40;;;;;;;15.32;8.13;;;16.80;76.00;;;;;;5038149;28;20468;-71
2021/07/08 07:06:06;;;;;;;14.15;7.50;;;16.90;76.00;;;;;;5037243;28;20025;-71
2021/07/08 07:08:33;;;;;;;16.52;9.48;;;16.90;76.00;;;;;;5036446;28;20022;-71
2021/07/08 07:10:59;;;;;;;18.00;8.63;;;16.90;76.10;;;;;;5037607;28;20043;-71
2021/07/08 07:13:25;;;;;;;14.65;8.27;;;17.00;76.60;;;;;;5036569;28;20061;-71
2021/07/08 07:15:51;;;;;;;17.55;8.88;;;16.90;76.50;;;;;;5037550;28;20057;-71
2021/07/08 07:18:17;;;;;;;20.10;9.45;;;16.90;77.00;;;;;;5037200;28;20610;-71
2021/07/08 07:20:42;;;;;;;17.80;8.23;;;16.90;77.10;;;;;;5036435;28;20103;-71
2021/07/08 07:23:08;;;;;;;19.25;9.60;;;16.90;77.40;;;;;;5037411;28;20022;-71
2021/07/08 07:25:39;;;;;;;25.38;10.15;;;17.00;77.70;;;;;;5034230;28;20030;-71
2021/07/08 07:28:07;;;;;;;19.95;9.57;;;17.00;77.30;;;;;;5027722;28;20088;-71
2021/07/08 07:30:33;;;;;;;18.23;9.27;;;17.00;77.40;;;;;;5037429;28;20102;-71
2021/07/08 07:32:59;;;;;;;18.67;9.30;;;16.90;77.70;;;;;;5034086;28;20559;-71
2021/07/08 07:35:25;;;;;;;20.77;9.93;;;17.00;77.70;;;;;;5034539;28;20030;-71
2021/07/08 07:37:51;;;;;;;18.63;9.63;;;17.00;77.80;;;;;;5031854;28;20018;-71
2021/07/08 07:40:19;;;;;;;18.77;9.20;;;17.00;77.70;;;;;;5036646;28;20115;-71
2021/07/08 07:42:45;;;;;;;22.60;9.68;;;17.00;77.60;;;;;;5036778;28;20152;-72
2021/07/08 07:45:11;;;;;;;19.83;9.70;;;17.00;77.90;;;;;;5035484;28;20045;-72
2021/07/08 07:47:38;;;;;;;18.60;9.02;;;17.00;77.70;;;;;;5036418;28;20081;-71
2021/07/08 07:50:05;;;;;;;19.25;8.70;;;17.00;78.00;;;;;;5036827;28;20690;-71
2021/07/08 07:52:32;;;;;;;21.35;10.07;;;17.10;78.00;;;;;;5036268;28;20028;-71
2021/07/08 07:54:57;;;;;;;19.48;9.27;;;17.10;77.80;;;;;;5029374;28;20041;-71
2021/07/08 07:57:23;;;;;;;20.13;9.00;;;17.10;78.00;;;;;;5033432;28;20037;-71
2021/07/08 07:59:50;;;;;;;20.15;9.48;;;17.10;78.10;;;;;;5034903;28;20112;-71
2021/07/08 08:02:16;;;;;;;21.25;11.18;;;17.20;78.30;;;;;;5035308;28;20051;-71
2021/07/08 08:04:46;;;;;;;26.85;10.93;;;17.20;78.00;;;;;;5037210;28;20552;-72
2021/07/08 08:09:57;;;;;;;20.98;10.43;;;17.30;78.70;;;;;;5036915;28;20092;-71
2021/07/08 08:12:24;;;;;;;18.13;9.75;;;17.30;78.60;;;;;;5037154;28;20468;-72
2021/07/08 08:14:50;;;;;;;24.38;9.75;;;17.30;78.60;;;;;;5037208;28;20030;-71
2021/07/08 08:17:16;;;;;;;19.55;9.73;;;17.30;78.90;;;;;;5033864;28;20496;-72
2021/07/08 08:19:42;;;;;;;18.88;10.40;;;17.30;78.90;;;;;;5036274;28;20526;-71
2021/07/08 08:22:11;;;;;;;26.17;15.20;;;17.30;78.80;;;;;;5037156;28;20057;-71
2021/07/08 08:24:38;;;;;;;28.85;15.02;;;17.40;79.20;;;;;;5028090;28;20091;-70
2021/07/08 08:27:04;;;;;;;23.10;10.43;;;17.40;78.80;;;;;;5033897;28;20053;-71
2021/07/08 08:29:32;;;;;;;22.95;9.93;;;17.40;79.00;;;;;;5034371;28;20037;-71
2021/07/08 08:31:58;;;;;;;24.92;10.43;;;17.50;79.40;;;;;;5035662;28;20080;-72
2021/07/08 08:34:24;;;;;;;18.52;9.77;;;17.50;79.30;;;;;;5031435;28;20106;-71
2021/07/08 08:36:50;;;;;;;19.65;11.00;;;17.50;79.10;;;;;;5035867;28;20061;-71
2021/07/08 08:39:16;;;;;;;22.20;10.02;;;17.50;79.00;;;;;;5034203;28;20399;-71
2021/07/08 08:41:42;;;;;;;22.52;10.40;;;17.60;79.20;;;;;;5035860;28;20026;-72
2021/07/08 08:44:08;;;;;;;21.05;10.10;;;17.60;79.10;;;;;;5035649;28;20049;-71
2021/07/08 08:46:35;;;;;;;22.65;9.93;;;17.60;78.90;;;;;;5035994;28;20480;-71
2021/07/08 08:49:05;;;;;;;20.20;9.77;;;17.70;78.80;;;;;;5035950;28;20397;-71
2021/07/08 08:51:32;;;;;;;17.90;10.10;;;17.70;78.90;;;;;;5036479;28;20025;-71
2021/07/08 08:53:58;;;;;;;23.23;10.63;;;17.80;78.90;;;;;;5035026;28;20033;-71
2021/07/08 08:56:24;;;;;;;22.88;10.55;;;17.80;78.90;;;;;;5035331;28;20124;-71
2021/07/08 08:58:50;;;;;;;17.90;9.60;;;17.80;78.70;;;;;;5036386;28;20052;-71
2021/07/08 09:01:17;;;;;;;18.23;10.38;;;17.80;78.60;;;;;;5035205;28;20014;-71
2021/07/08 09:03:45;;;;;;;19.77;10.27;;;17.80;78.60;;;;;;5035904;28;20252;-71
2021/07/08 09:06:15;;;;;;;19.73;10.32;;;17.90;78.40;;;;;;5034449;28;20014;-70
2021/07/08 09:08:50;;;;;;;17.48;10.27;;;17.90;78.20;;;;;;5036047;28;20026;-73
2021/07/08 09:11:28;;;;;;;29.33;16.05;;;18.00;78.00;;;;;;5038185;28;20028;-69
2021/07/08 09:13:56;;;;;;;38.88;23.13;;;18.00;78.00;;;;;;5038761;28;20500;-69
2021/07/08 09:16:28;;;;;;;33.55;19.80;;;18.00;78.00;;;;;;5039842;28;20017;-69
2021/07/08 09:19:08;;;;;;;22.65;10.77;;;18.10;78.00;;;;;;5039043;28;20049;-68
2021/07/08 09:21:40;;;;;;;22.30;9.55;;;18.10;78.70;;;;;;5039069;28;20538;-69
2021/07/08 09:24:12;;;;;;;17.35;9.48;;;18.20;78.20;;;;;;5038863;28;20542;-69
2021/07/08 09:26:45;;;;;;;20.48;9.90;;;18.30;77.40;;;;;;5039412;28;20069;-69
2021/07/08 09:29:19;;;;;;;18.77;10.40;;;18.40;77.60;;;;;;5039723;28;20018;-69
2021/07/08 09:31:52;;;;;;;18.85;10.50;;;18.50;77.60;;;;;;5039937;28;20033;-69
2021/07/08 09:34:26;;;;;;;16.38;9.07;;;18.60;77.80;;;;;;5036925;28;20079;-69
2021/07/08 09:37:06;;;;;;;17.58;9.45;;;18.70;77.80;;;;;;5038294;28;20092;-69
2021/07/08 09:39:39;;;;;;;18.30;9.02;;;18.80;77.20;;;;;;5039417;28;20056;-71
2021/07/08 09:42:05;;;;;;;18.35;9.82;;;18.90;77.10;;;;;;5039111;28;20404;-71
2021/07/08 09:44:31;;;;;;;20.15;9.55;;;19.00;77.50;;;;;;5033410;28;20029;-71
2021/07/08 09:46:58;;;;;;;20.20;9.50;;;19.10;77.60;;;;;;5034363;28;20036;-71
2021/07/08 09:49:25;;;;;;;21.15;11.20;;;19.20;77.20;;;;;;5044704;28;20022;-71
2021/07/08 09:51:52;;;;;;;22.33;10.43;;;19.30;77.60;;;;;;5036457;28;20083;-71
2021/07/08 09:57:45;;;;;;;15.65;8.40;;;19.50;77.00;;;;;;5029601;28;20111;-70
2021/07/08 10:00:21;;;;;;;18.38;9.13;;;19.50;76.10;;;;;;5038806;28;20018;-71
2021/07/08 10:02:48;;;;;;;15.45;8.10;;;19.60;76.60;;;;;;5039613;28;20029;-70
2021/07/08 10:05:15;;;;;;;16.45;8.65;;;19.90;77.80;;;;;;5039187;28;20124;-70
2021/07/08 10:07:41;;;;;;;16.10;8.48;;;20.10;77.00;;;;;;5038906;28;20038;-71
2021/07/08 10:10:08;;;;;;;13.05;7.45;;;20.30;77.10;;;;;;5038856;28;20435;-71
2021/07/08 10:12:37;;;;;;;15.45;8.30;;;20.50;76.30;;;;;;5038930;28;20030;-71
2021/07/08 10:15:06;;;;;;;18.00;8.23;;;20.70;76.70;;;;;;5039350;28;20028;-70
2021/07/08 10:17:35;;;;;;;11.95;7.45;;;20.70;73.20;;;;;;5035003;28;20109;-70
2021/07/08 10:20:03;;;;;;;12.98;7.85;;;20.70;71.50;;;;;;5034346;28;20100;-70
2021/07/08 10:22:30;;;;;;;11.35;7.07;;;20.60;72.00;;;;;;5033838;28;20095;-70
2021/07/08 10:24:56;;;;;;;12.63;7.85;;;20.60;72.90;;;;;;5035503;28;20085;-70
2021/07/08 10:27:23;;;;;;;13.20;7.65;;;20.80;74.40;;;;;;5038864;28;20440;-70
2021/07/08 10:29:51;;;;;;;13.10;7.53;;;21.00;75.20;;;;;;5038642;28;20113;-70
2021/07/08 10:32:17;;;;;;;10.05;7.07;;;21.30;76.10;;;;;;5037530;28;20029;-71
2021/07/08 10:34:48;;;;;;;14.65;6.93;;;21.60;76.10;;;;;;5035978;28;20515;-71
2021/07/08 10:37:40;;;;;;;9.45;5.85;;;21.90;73.80;;;;;;5034214;28;20116;-70
2021/07/08 10:40:24;;;;;;;9.75;6.30;;;22.20;71.90;;;;;;5033472;28;20488;-70
2021/07/08 10:42:50;;;;;;;11.73;6.25;;;22.40;72.10;;;;;;5031284;28;20026;-70
2021/07/08 10:45:22;;;;;;;17.52;10.30;;;22.70;72.00;;;;;;5038781;28;20021;-69
2021/07/08 10:47:49;;;;;;;14.80;8.48;;;22.80;71.50;;;;;;5038655;28;20029;-70
2021/07/08 10:50:30;;;;;;;9.95;5.97;;;22.70;69.10;;;;;;5038526;28;20377;-69
2021/07/08 10:52:56;;;;;;;10.32;5.65;;;22.60;67.70;;;;;;5038489;28;20108;-70
2021/07/08 10:55:40;;;;;;;13.68;7.10;;;22.60;69.70;;;;;;5037658;28;20025;-70
2021/07/08 10:58:08;;;;;;;13.35;7.10;;;22.70;70.50;;;;;;5038374;28;20025;-71
2021/07/08 11:00:49;;;;;;;10.10;6.50;;;23.20;72.80;;;;;;5038039;28;20124;-72
2021/07/08 11:03:41;;;;;;;14.27;7.20;;;23.70;72.40;;;;;;5026345;28;20097;-70
2021/07/08 11:06:24;;;;;;;13.05;6.55;;;24.10;71.90;;;;;;5038347;28;20423;-71
2021/07/08 11:08:51;;;;;;;13.40;7.07;;;24.50;72.00;;;;;;5037947;28;20033;-69
2021/07/08 11:11:23;;;;;;;12.40;6.82;;;24.70;73.90;;;;;;5037705;28;20045;-70
2021/07/08 11:13:53;;;;;;;12.25;6.32;;;25.10;75.30;;;;;;5038408;28;20040;-71
2021/07/08 11:16:38;;;;;;;12.65;6.75;;;25.60;74.40;;;;;;5037991;28;20024;-75
2021/07/08 11:19:04;;;;;;;11.88;5.95;;;26.00;68.30;;;;;;5033672;28;20053;-73
2021/07/08 11:21:51;;;;;;;14.43;5.80;;;26.30;69.60;;;;;;5038138;28;20476;-74
2021/07/08 11:24:20;;;;;;;11.05;6.03;;;26.70;69.70;;;;;;5027706;28;20143;-75
2021/07/08 11:27:04;;;;;;;13.52;6.85;;;27.20;67.20;;;;;;5036568;28;20043;-70
2021/07/08 11:29:33;;;;;;;11.23;6.85;;;27.60;68.50;;;;;;5036879;28;20018;-72
2021/07/08 11:31:59;;;;;;;44.40;35.33;;;28.10;70.30;;;;;;5036341;28;20373;-72
2021/07/08 11:34:26;;;;;;;21.42;16.25;;;28.60;73.60;;;;;;5032620;28;20026;-71
2021/07/08 11:36:54;;;;;;;23.92;17.17;;;28.70;64.80;;;;;;5037150;28;20117;-72
2021/07/08 11:39:25;;;;;;;10.60;5.88;;;28.50;62.70;;;;;;5036861;28;20025;-72
2021/07/08 11:41:54;;;;;;;10.20;5.80;;;28.40;63.00;;;;;;5037087;28;20024;-72
2021/07/08 11:44:29;;;;;;;10.90;5.47;;;28.70;67.80;;;;;;5037550;28;20113;-72
2021/07/08 11:46:57;;;;;;;9.65;5.47;;;28.90;67.60;;;;;;5026610;28;20075;-73
2021/07/08 11:49:26;;;;;;;9.68;5.75;;;29.00;64.00;;;;;;5037300;28;20107;-72
2021/07/08 11:51:51;;;;;;;10.80;5.35;;;28.90;66.00;;;;;;5037227;28;20028;-72
2021/07/08 11:54:17;;;;;;;9.40;5.10;;;28.80;63.50;;;;;;5033630;28;20025;-71
2021/07/08 11:56:43;;;;;;;7.78;4.75;;;28.60;59.40;;;;;;5024559;28;20298;-71
2021/07/08 11:59:09;;;;;;;11.88;5.28;;;28.50;59.10;;;;;;5036496;28;20029;-71
2021/07/08 12:01:40;;;;;;;7.63;5.25;;;28.20;58.90;;;;;;5037082;28;20029;-71
2021/07/08 12:04:06;;;;;;;9.82;5.05;;;28.10;60.00;;;;;;5036684;28;20036;-71
2021/07/08 12:06:31;;;;;;;7.15;4.35;;;27.80;59.90;;;;;;5036539;28;20021;-72
2021/07/08 12:09:01;;;;;;;8.88;4.93;;;27.50;56.60;;;;;;5036942;28;20025;-71
2021/07/08 12:11:43;;;;;;;10.45;5.13;;;27.10;57.50;;;;;;5037092;28;20033;-72
2021/07/08 12:14:13;;;;;;;10.45;5.50;;;26.80;56.00;;;;;;5036831;28;20085;-72
2021/07/08 12:16:45;;;;;;;10.82;5.03;;;26.50;56.50;;;;;;5034606;28;20069;-71
2021/07/08 12:19:27;;;;;;;15.70;5.57;;;26.10;56.80;;;;;;5026984;28;20049;-71
2021/07/08 12:21:58;;;;;;;7.45;4.30;;;25.70;56.30;;;;;;5036726;28;20060;-71
2021/07/08 12:24:29;;;;;;;12.13;5.03;;;25.40;56.70;;;;;;5036565;28;20026;-72
2021/07/08 12:26:59;;;;;;;11.10;4.88;;;25.20;57.80;;;;;;5036916;28;20120;-71
2021/07/08 12:29:26;;;;;;;11.13;5.07;;;25.00;57.80;;;;;;5037113;28;20476;-71
2021/07/08 12:31:58;;;;;;;8.60;4.88;;;24.90;57.10;;;;;;5036156;28;20026;-71
2021/07/08 12:34:46;;;;;;;8.45;5.00;;;24.70;57.10;;;;;;5031450;28;20029;-72
2021/07/08 12:37:16;;;;;;;8.10;4.25;;;24.50;56.00;;;;;;5032457;28;20091;-71
2021/07/08 12:39:43;;;;;;;9.43;5.30;;;24.30;57.40;;;;;;5036281;28;20017;-70
2021/07/08 12:42:20;;;;;;;12.48;5.57;;;24.30;59.10;;;;;;5036260;28;20025;-72
2021/07/08 12:44:52;;;;;;;10.88;5.95;;;24.20;57.50;;;;;;5040217;28;20447;-72
2021/07/08 12:47:19;;;;;;;11.15;6.68;;;24.00;57.70;;;;;;5039482;28;20060;-71